Strona główna
METAR-TAF:

METAR-TAF

Lotnisko :

Harriman-and-West Airport

North Adams, Massachusetts, Stany Zjednoczone

Szerokość geograficzna: 42-41-50N, Długość geograficzna: 073-10-13W, wysokość: 199 m

Aktualna obserwacja pogody

Raport powstał 12 minut temu, godzina 08:52 UTC
Cisza
Temperatura 14°C
Wilgotność 94%
Ciśnienie 1021 hPa
Widzialność: 16.1 km
bezchmurnie

METAR: KAQW 200852Z AUTO 00000KT 10SM CLR 14/13 A3016 RMK AO2 SLP210 T01390128 53004

czas: 05:04 (09:04 UTC)


TAF: brakujący

Obserwacja i prognoza pogody dla ponad 4000 lotnisk (raport METAR i TAF).

Dostępne stacje oznaczono żółtymi i czerwonymi punktami na mapie.

Najedź kursorem aby zobaczyć nazwę stacji.

Kliknij aby zobaczyć obserwacje i prognozy pogody.

Aby zmienić mapę: kliknij na zielony przycisk z czarnym krzyżykiem, aby powiększyć; na zielony przycisk z myślnikiem, aby pomniejszyć; na zielone strzałki, aby przejść do map sąsiednich.


METAR-TAF: